Terminal Aerodrome Forecast
Issued by NWS

Home | Current Version | Previous Version | Text Only | Print | Product List | Glossary On
Versions: 1 2 3 4 5 6 7 8 9 10 11 12 13 14 15 16
000
FTUS41 KBOX 202123 AAA
TAFHYA
TAF AMD
KHYA 202123Z 2021/2118 01010G20KT P6SM SKC
     FM202300 01005KT P6SM SKC
     FM211000 01006KT P6SM SCT250=

USA.gov is the U.S. government's official web portal to all federal, state and local government web resources and services.